sensor_id;sensor_type;location;lat;lon;timestamp;pressure;altitude;pressure_sealevel;temperature;humidity
10652;BME280;5374;42.742;23.266;2024-03-08T00:02:41;95487.00;;;6.34;100.00
10652;BME280;5374;42.742;23.266;2024-03-08T00:05:28;95503.72;;;6.46;100.00
10652;BME280;5374;42.742;23.266;2024-03-08T00:08:17;95487.94;;;6.28;100.00
10652;BME280;5374;42.742;23.266;2024-03-08T00:11:04;95511.50;;;6.41;100.00
10652;BME280;5374;42.742;23.266;2024-03-08T00:13:52;95507.69;;;6.37;100.00
10652;BME280;5374;42.742;23.266;2024-03-08T00:16:39;95501.38;;;6.38;100.00
10652;BME280;5374;42.742;23.266;2024-03-08T00:19:29;95500.88;;;6.29;100.00
10652;BME280;5374;42.742;23.266;2024-03-08T00:22:16;95492.81;;;6.24;100.00
10652;BME280;5374;42.742;23.266;2024-03-08T00:25:06;95464.56;;;6.13;100.00
10652;BME280;5374;42.742;23.266;2024-03-08T00:27:54;95505.84;;;6.37;100.00
10652;BME280;5374;42.742;23.266;2024-03-08T00:30:42;95502.50;;;6.30;100.00
10652;BME280;5374;42.742;23.266;2024-03-08T00:33:29;95489.25;;;6.18;100.00
10652;BME280;5374;42.742;23.266;2024-03-08T00:36:16;95500.97;;;6.23;100.00
10652;BME280;5374;42.742;23.266;2024-03-08T00:39:04;95494.28;;;6.20;100.00
10652;BME280;5374;42.742;23.266;2024-03-08T00:41:53;95488.50;;;6.11;100.00
10652;BME280;5374;42.742;23.266;2024-03-08T00:44:40;95486.88;;;6.10;100.00
10652;BME280;5374;42.742;23.266;2024-03-08T00:47:27;95490.69;;;6.14;100.00
10652;BME280;5374;42.742;23.266;2024-03-08T00:50:15;95493.78;;;6.11;100.00
10652;BME280;5374;42.742;23.266;2024-03-08T00:53:03;95489.09;;;6.13;100.00
10652;BME280;5374;42.742;23.266;2024-03-08T00:55:51;95486.88;;;6.10;100.00
10652;BME280;5374;42.742;23.266;2024-03-08T00:58:40;95485.31;;;6.09;100.00
10652;BME280;5374;42.742;23.266;2024-03-08T01:01:27;95480.03;;;6.09;100.00
10652;BME280;5374;42.742;23.266;2024-03-08T01:04:14;95478.84;;;6.05;100.00
10652;BME280;5374;42.742;23.266;2024-03-08T01:07:01;95455.63;;;5.96;100.00
10652;BME280;5374;42.742;23.266;2024-03-08T01:09:48;95454.25;;;5.93;100.00
10652;BME280;5374;42.742;23.266;2024-03-08T01:12:35;95460.41;;;6.05;100.00
10652;BME280;5374;42.742;23.266;2024-03-08T01:15:24;95465.09;;;6.03;100.00
10652;BME280;5374;42.742;23.266;2024-03-08T01:18:11;95466.03;;;6.09;100.00
10652;BME280;5374;42.742;23.266;2024-03-08T01:20:58;95445.81;;;5.84;100.00
10652;BME280;5374;42.742;23.266;2024-03-08T01:23:46;95465.75;;;5.99;100.00
10652;BME280;5374;42.742;23.266;2024-03-08T01:26:33;95436.72;;;5.80;100.00
10652;BME280;5374;42.742;23.266;2024-03-08T01:29:21;95467.13;;;6.01;100.00
10652;BME280;5374;42.742;23.266;2024-03-08T01:32:09;95450.38;;;5.96;100.00
10652;BME280;5374;42.742;23.266;2024-03-08T01:34:57;95452.34;;;6.00;100.00
10652;BME280;5374;42.742;23.266;2024-03-08T01:37:44;95453.81;;;5.96;100.00
10652;BME280;5374;42.742;23.266;2024-03-08T01:40:32;95453.22;;;5.94;100.00
10652;BME280;5374;42.742;23.266;2024-03-08T01:43:20;95450.59;;;5.94;100.00
10652;BME280;5374;42.742;23.266;2024-03-08T01:46:08;95451.75;;;5.98;100.00
10652;BME280;5374;42.742;23.266;2024-03-08T01:48:58;95440.47;;;5.91;100.00
10652;BME280;5374;42.742;23.266;2024-03-08T01:51:48;95445.69;;;5.98;100.00
10652;BME280;5374;42.742;23.266;2024-03-08T01:54:35;95444.66;;;5.99;100.00
10652;BME280;5374;42.742;23.266;2024-03-08T01:57:23;95439.97;;;6.01;100.00
10652;BME280;5374;42.742;23.266;2024-03-08T02:00:11;95437.50;;;6.06;100.00
10652;BME280;5374;42.742;23.266;2024-03-08T02:02:59;95441.53;;;6.08;100.00
10652;BME280;5374;42.742;23.266;2024-03-08T02:05:49;95439.91;;;6.07;100.00
10652;BME280;5374;42.742;23.266;2024-03-08T02:08:37;95437.50;;;6.06;100.00
10652;BME280;5374;42.742;23.266;2024-03-08T02:11:24;95431.41;;;6.05;100.00
10652;BME280;5374;42.742;23.266;2024-03-08T02:14:11;95414.06;;;5.98;100.00
10652;BME280;5374;42.742;23.266;2024-03-08T02:17:00;95423.94;;;6.02;100.00
10652;BME280;5374;42.742;23.266;2024-03-08T02:19:47;95443.75;;;6.23;100.00
10652;BME280;5374;42.742;23.266;2024-03-08T02:22:36;95439.28;;;6.24;100.00
10652;BME280;5374;42.742;23.266;2024-03-08T02:25:24;95447.72;;;6.32;100.00
10652;BME280;5374;42.742;23.266;2024-03-08T02:28:11;95441.16;;;6.35;100.00
10652;BME280;5374;42.742;23.266;2024-03-08T02:30:59;95442.47;;;6.44;100.00
10652;BME280;5374;42.742;23.266;2024-03-08T02:33:46;95449.34;;;6.45;100.00
10652;BME280;5374;42.742;23.266;2024-03-08T02:36:34;95441.44;;;6.45;100.00
10652;BME280;5374;42.742;23.266;2024-03-08T02:39:23;95446.72;;;6.45;100.00
10652;BME280;5374;42.742;23.266;2024-03-08T02:42:10;95450.31;;;6.50;100.00
10652;BME280;5374;42.742;23.266;2024-03-08T02:44:58;95448.56;;;6.44;100.00
10652;BME280;5374;42.742;23.266;2024-03-08T02:47:45;95454.91;;;6.55;100.00
10652;BME280;5374;42.742;23.266;2024-03-08T02:50:32;95453.84;;;6.56;100.00
10652;BME280;5374;42.742;23.266;2024-03-08T02:53:20;95445.47;;;6.47;100.00
10652;BME280;5374;42.742;23.266;2024-03-08T02:56:09;95451.81;;;6.58;100.00
10652;BME280;5374;42.742;23.266;2024-03-08T02:58:58;95450.53;;;6.49;100.00
10652;BME280;5374;42.742;23.266;2024-03-08T03:01:45;95449.50;;;6.50;100.00
10652;BME280;5374;42.742;23.266;2024-03-08T03:04:33;95452.81;;;6.45;100.00
10652;BME280;5374;42.742;23.266;2024-03-08T03:07:20;95448.09;;;6.47;100.00
10652;BME280;5374;42.742;23.266;2024-03-08T03:10:08;95449.28;;;6.33;100.00
10652;BME280;5374;42.742;23.266;2024-03-08T03:12:57;95439.72;;;6.21;100.00
10652;BME280;5374;42.742;23.266;2024-03-08T03:15:46;95460.22;;;6.37;100.00
10652;BME280;5374;42.742;23.266;2024-03-08T03:18:33;95462.63;;;6.38;100.00
10652;BME280;5374;42.742;23.266;2024-03-08T03:21:20;95460.09;;;6.32;100.00
10652;BME280;5374;42.742;23.266;2024-03-08T03:24:07;95472.91;;;6.28;100.00
10652;BME280;5374;42.742;23.266;2024-03-08T03:26:55;95412.06;;;5.93;100.00
10652;BME280;5374;42.742;23.266;2024-03-08T03:29:44;95460.81;;;6.21;100.00
10652;BME280;5374;42.742;23.266;2024-03-08T03:32:32;95485.88;;;6.30;100.00
10652;BME280;5374;42.742;23.266;2024-03-08T03:35:22;95475.91;;;6.13;100.00
10652;BME280;5374;42.742;23.266;2024-03-08T03:38:10;95476.84;;;6.19;100.00
10652;BME280;5374;42.742;23.266;2024-03-08T03:40:57;95477.94;;;6.11;100.00
10652;BME280;5374;42.742;23.266;2024-03-08T03:43:50;95507.53;;;6.13;100.00
10652;BME280;5374;42.742;23.266;2024-03-08T03:46:41;95488.75;;;6.10;100.00
10652;BME280;5374;42.742;23.266;2024-03-08T03:49:30;95474.22;;;5.82;100.00
10652;BME280;5374;42.742;23.266;2024-03-08T03:52:17;95493.84;;;5.87;100.00
10652;BME280;5374;42.742;23.266;2024-03-08T03:55:04;95460.56;;;5.67;100.00
10652;BME280;5374;42.742;23.266;2024-03-08T03:57:52;95496.53;;;5.80;100.00
10652;BME280;5374;42.742;23.266;2024-03-08T04:00:39;95508.25;;;5.84;100.00
10652;BME280;5374;42.742;23.266;2024-03-08T04:03:28;95509.47;;;5.81;100.00
10652;BME280;5374;42.742;23.266;2024-03-08T04:06:15;95508.69;;;5.81;100.00
10652;BME280;5374;42.742;23.266;2024-03-08T04:09:02;95495.84;;;5.66;100.00
10652;BME280;5374;42.742;23.266;2024-03-08T04:11:50;95516.91;;;5.66;100.00
10652;BME280;5374;42.742;23.266;2024-03-08T04:14:40;95512.16;;;5.57;100.00
10652;BME280;5374;42.742;23.266;2024-03-08T04:17:28;95515.81;;;5.56;100.00
10652;BME280;5374;42.742;23.266;2024-03-08T04:20:17;95517.84;;;5.54;100.00
10652;BME280;5374;42.742;23.266;2024-03-08T04:23:04;95511.81;;;5.46;100.00
10652;BME280;5374;42.742;23.266;2024-03-08T04:25:51;95522.91;;;5.55;100.00
10652;BME280;5374;42.742;23.266;2024-03-08T04:28:38;95525.16;;;5.52;100.00
10652;BME280;5374;42.742;23.266;2024-03-08T04:31:25;95536.66;;;5.57;100.00
10652;BME280;5374;42.742;23.266;2024-03-08T04:34:13;95531.97;;;5.59;100.00
10652;BME280;5374;42.742;23.266;2024-03-08T04:37:02;95535.84;;;5.57;100.00
10652;BME280;5374;42.742;23.266;2024-03-08T04:39:50;95515.34;;;5.40;100.00
10652;BME280;5374;42.742;23.266;2024-03-08T04:42:39;95533.47;;;5.48;100.00
10652;BME280;5374;42.742;23.266;2024-03-08T04:45:27;95537.34;;;5.46;100.00
10652;BME280;5374;42.742;23.266;2024-03-08T04:48:14;95527.13;;;5.31;100.00
10652;BME280;5374;42.742;23.266;2024-03-08T04:51:02;95543.41;;;5.46;100.00
10652;BME280;5374;42.742;23.266;2024-03-08T04:53:51;95546.72;;;5.42;100.00
10652;BME280;5374;42.742;23.266;2024-03-08T04:56:38;95543.50;;;5.40;100.00
10652;BME280;5374;42.742;23.266;2024-03-08T04:59:26;95547.56;;;5.36;100.00
10652;BME280;5374;42.742;23.266;2024-03-08T05:02:13;95541.31;;;5.30;100.00
10652;BME280;5374;42.742;23.266;2024-03-08T05:05:00;95547.56;;;5.36;100.00
10652;BME280;5374;42.742;23.266;2024-03-08T05:07:47;95553.34;;;5.44;100.00
10652;BME280;5374;42.742;23.266;2024-03-08T05:10:36;95561.31;;;5.38;100.00
10652;BME280;5374;42.742;23.266;2024-03-08T05:13:24;95565.78;;;5.37;100.00
10652;BME280;5374;42.742;23.266;2024-03-08T05:16:13;95533.97;;;5.14;100.00
10652;BME280;5374;42.742;23.266;2024-03-08T05:19:01;95571.06;;;5.37;100.00
10652;BME280;5374;42.742;23.266;2024-03-08T05:21:49;95551.75;;;5.19;100.00
10652;BME280;5374;42.742;23.266;2024-03-08T05:24:36;95567.06;;;5.28;100.00
10652;BME280;5374;42.742;23.266;2024-03-08T05:27:25;95582.81;;;5.35;100.00
10652;BME280;5374;42.742;23.266;2024-03-08T05:30:14;95559.03;;;5.17;100.00
10652;BME280;5374;42.742;23.266;2024-03-08T05:33:01;95593.31;;;5.41;100.00
10652;BME280;5374;42.742;23.266;2024-03-08T05:35:49;95594.91;;;5.42;100.00
10652;BME280;5374;42.742;23.266;2024-03-08T05:38:37;95586.44;;;5.40;100.00
10652;BME280;5374;42.742;23.266;2024-03-08T05:41:25;95597.31;;;5.44;100.00
10652;BME280;5374;42.742;23.266;2024-03-08T05:44:13;95520.28;;;4.99;100.00
10652;BME280;5374;42.742;23.266;2024-03-08T05:47:02;95606.97;;;5.57;100.00
10652;BME280;5374;42.742;23.266;2024-03-08T05:49:50;95621.13;;;5.62;100.00
10652;BME280;5374;42.742;23.266;2024-03-08T05:52:39;95621.03;;;5.69;100.00
10652;BME280;5374;42.742;23.266;2024-03-08T05:55:26;95627.72;;;5.71;100.00
10652;BME280;5374;42.742;23.266;2024-03-08T05:58:13;95625.22;;;5.83;100.00
10652;BME280;5374;42.742;23.266;2024-03-08T06:01:01;95610.41;;;5.82;100.00
10652;BME280;5374;42.742;23.266;2024-03-08T06:03:53;95625.72;;;5.98;100.00
10652;BME280;5374;42.742;23.266;2024-03-08T06:06:41;95614.78;;;5.95;100.00
10652;BME280;5374;42.742;23.266;2024-03-08T06:09:28;95629.69;;;6.07;100.00
10652;BME280;5374;42.742;23.266;2024-03-08T06:12:16;95632.47;;;6.12;100.00
10652;BME280;5374;42.742;23.266;2024-03-08T06:15:05;95640.16;;;6.14;100.00
10652;BME280;5374;42.742;23.266;2024-03-08T06:17:53;95635.25;;;6.17;100.00
10652;BME280;5374;42.742;23.266;2024-03-08T06:20:41;95644.94;;;6.24;100.00
10652;BME280;5374;42.742;23.266;2024-03-08T06:23:29;95648.34;;;6.31;100.00
10652;BME280;5374;42.742;23.266;2024-03-08T06:26:16;95633.38;;;6.25;100.00
10652;BME280;5374;42.742;23.266;2024-03-08T06:29:03;95643.06;;;6.31;100.00
10652;BME280;5374;42.742;23.266;2024-03-08T06:31:52;95643.06;;;6.31;100.00
10652;BME280;5374;42.742;23.266;2024-03-08T06:34:40;95653.69;;;6.42;100.00
10652;BME280;5374;42.742;23.266;2024-03-08T06:37:28;95626.66;;;6.29;100.00
10652;BME280;5374;42.742;23.266;2024-03-08T06:40:17;95645.56;;;6.44;100.00
10652;BME280;5374;42.742;23.266;2024-03-08T06:43:04;95654.50;;;6.61;100.00
10652;BME280;5374;42.742;23.266;2024-03-08T06:45:52;95649.38;;;6.66;100.00
10652;BME280;5374;42.742;23.266;2024-03-08T06:48:39;95656.88;;;6.69;100.00
10652;BME280;5374;42.742;23.266;2024-03-08T06:51:28;95657.47;;;6.71;100.00
10652;BME280;5374;42.742;23.266;2024-03-08T06:54:15;95655.25;;;6.68;100.00
10652;BME280;5374;42.742;23.266;2024-03-08T06:57:02;95650.19;;;6.67;100.00
10652;BME280;5374;42.742;23.266;2024-03-08T06:59:50;95655.31;;;6.80;100.00
10652;BME280;5374;42.742;23.266;2024-03-08T07:02:38;95675.75;;;7.03;100.00
10652;BME280;5374;42.742;23.266;2024-03-08T07:05:26;95652.38;;;7.06;100.00
10652;BME280;5374;42.742;23.266;2024-03-08T07:08:15;95658.09;;;7.22;100.00
10652;BME280;5374;42.742;23.266;2024-03-08T07:11:03;95656.88;;;7.36;100.00
10652;BME280;5374;42.742;23.266;2024-03-08T07:13:50;95653.50;;;7.59;100.00
10652;BME280;5374;42.742;23.266;2024-03-08T07:16:37;95682.88;;;7.80;100.00
10652;BME280;5374;42.742;23.266;2024-03-08T07:19:27;95679.88;;;7.77;100.00
10652;BME280;5374;42.742;23.266;2024-03-08T07:22:14;95667.00;;;7.80;100.00
10652;BME280;5374;42.742;23.266;2024-03-08T07:25:03;95671.97;;;8.00;100.00
10652;BME280;5374;42.742;23.266;2024-03-08T07:28:05;95674.09;;;8.21;100.00
10652;BME280;5374;42.742;23.266;2024-03-08T07:30:53;95679.94;;;8.23;100.00
10652;BME280;5374;42.742;23.266;2024-03-08T07:33:53;95680.31;;;8.27;100.00
10652;BME280;5374;42.742;23.266;2024-03-08T07:36:40;95672.31;;;8.34;100.00
10652;BME280;5374;42.742;23.266;2024-03-08T07:39:28;95676.22;;;8.54;100.00
10652;BME280;5374;42.742;23.266;2024-03-08T07:42:16;95673.31;;;8.68;100.00
10652;BME280;5374;42.742;23.266;2024-03-08T07:45:05;95668.69;;;8.86;100.00
10652;BME280;5374;42.742;23.266;2024-03-08T07:47:53;95683.28;;;9.01;100.00
10652;BME280;5374;42.742;23.266;2024-03-08T07:50:42;95678.09;;;9.06;100.00
10652;BME280;5374;42.742;23.266;2024-03-08T07:53:29;95678.41;;;9.21;100.00
10652;BME280;5374;42.742;23.266;2024-03-08T07:56:16;95679.22;;;9.21;100.00
10652;BME280;5374;42.742;23.266;2024-03-08T07:59:05;95662.75;;;9.19;100.00
10652;BME280;5374;42.742;23.266;2024-03-08T08:01:53;95675.88;;;9.26;100.00
10652;BME280;5374;42.742;23.266;2024-03-08T08:04:40;95675.59;;;9.39;100.00
10652;BME280;5374;42.742;23.266;2024-03-08T08:07:28;95676.91;;;9.53;100.00
10652;BME280;5374;42.742;23.266;2024-03-08T08:10:15;95669.81;;;9.71;100.00
10652;BME280;5374;42.742;23.266;2024-03-08T08:13:04;95665.91;;;9.90;100.00
10652;BME280;5374;42.742;23.266;2024-03-08T08:15:52;95678.56;;;10.16;100.00
10652;BME280;5374;42.742;23.266;2024-03-08T08:18:39;95664.84;;;9.91;100.00
10652;BME280;5374;42.742;23.266;2024-03-08T08:21:27;95668.72;;;10.00;100.00
10652;BME280;5374;42.742;23.266;2024-03-08T08:24:14;95682.34;;;10.20;100.00
10652;BME280;5374;42.742;23.266;2024-03-08T08:27:01;95670.59;;;10.16;100.00
10652;BME280;5374;42.742;23.266;2024-03-08T08:29:49;95678.94;;;10.08;100.00
10652;BME280;5374;42.742;23.266;2024-03-08T08:32:38;95684.19;;;10.20;78.93
10652;BME280;5374;42.742;23.266;2024-03-08T08:35:25;95678.81;;;10.32;77.14
10652;BME280;5374;42.742;23.266;2024-03-08T08:38:12;95675.81;;;10.61;76.18
10652;BME280;5374;42.742;23.266;2024-03-08T08:40:59;95671.47;;;10.94;71.64
10652;BME280;5374;42.742;23.266;2024-03-08T08:43:48;95676.97;;;11.31;70.69
10652;BME280;5374;42.742;23.266;2024-03-08T08:46:35;95677.94;;;11.90;68.57
10652;BME280;5374;42.742;23.266;2024-03-08T08:49:24;95665.81;;;12.05;66.38
10652;BME280;5374;42.742;23.266;2024-03-08T08:52:12;95664.13;;;11.93;65.35
10652;BME280;5374;42.742;23.266;2024-03-08T08:54:59;95664.38;;;11.92;66.94
10652;BME280;5374;42.742;23.266;2024-03-08T08:57:46;95644.47;;;11.46;67.73
10652;BME280;5374;42.742;23.266;2024-03-08T09:00:34;95665.53;;;11.09;69.07
10652;BME280;5374;42.742;23.266;2024-03-08T09:03:21;95667.94;;;11.32;70.13
10652;BME280;5374;42.742;23.266;2024-03-08T09:06:11;95671.59;;;11.48;68.51
10652;BME280;5374;42.742;23.266;2024-03-08T09:08:58;95668.66;;;11.71;68.02
10652;BME280;5374;42.742;23.266;2024-03-08T09:11:45;95661.28;;;11.78;64.79
10652;BME280;5374;42.742;23.266;2024-03-08T09:14:32;95654.06;;;11.74;64.72
10652;BME280;5374;42.742;23.266;2024-03-08T09:17:20;95651.66;;;11.99;64.25
10652;BME280;5374;42.742;23.266;2024-03-08T09:20:08;95650.25;;;12.23;63.47
10652;BME280;5374;42.742;23.266;2024-03-08T09:22:57;95658.75;;;11.88;64.05
10652;BME280;5374;42.742;23.266;2024-03-08T09:25:45;95661.28;;;12.05;63.11
10652;BME280;5374;42.742;23.266;2024-03-08T09:28:32;95650.75;;;11.88;64.39
10652;BME280;5374;42.742;23.266;2024-03-08T09:31:20;95658.94;;;11.82;63.97
10652;BME280;5374;42.742;23.266;2024-03-08T09:34:07;95662.38;;;11.55;64.93
10652;BME280;5374;42.742;23.266;2024-03-08T09:36:55;95666.63;;;11.56;66.51
10652;BME280;5374;42.742;23.266;2024-03-08T09:39:43;95659.84;;;11.44;65.29
10652;BME280;5374;42.742;23.266;2024-03-08T09:42:31;95668.97;;;11.75;65.30
10652;BME280;5374;42.742;23.266;2024-03-08T09:45:20;95663.50;;;11.86;63.96
10652;BME280;5374;42.742;23.266;2024-03-08T09:48:10;95655.13;;;11.73;65.23
10652;BME280;5374;42.742;23.266;2024-03-08T09:50:59;95673.19;;;11.71;63.02
10652;BME280;5374;42.742;23.266;2024-03-08T09:53:47;95667.47;;;11.84;63.97
10652;BME280;5374;42.742;23.266;2024-03-08T09:56:36;95671.25;;;11.88;63.40
10652;BME280;5374;42.742;23.266;2024-03-08T09:59:24;95665.00;;;11.77;61.57
10652;BME280;5374;42.742;23.266;2024-03-08T10:02:30;95679.44;;;11.59;64.36
10652;BME280;5374;42.742;23.266;2024-03-08T10:05:18;95667.53;;;11.89;63.12
10652;BME280;5374;42.742;23.266;2024-03-08T10:08:05;95658.03;;;11.98;61.91
10652;BME280;5374;42.742;23.266;2024-03-08T10:10:53;95672.59;;;12.22;60.81
10652;BME280;5374;42.742;23.266;2024-03-08T10:13:42;95663.09;;;12.31;59.02
10652;BME280;5374;42.742;23.266;2024-03-08T10:16:29;95660.94;;;12.28;62.29
10652;BME280;5374;42.742;23.266;2024-03-08T10:19:16;95667.81;;;12.56;60.51
10652;BME280;5374;42.742;23.266;2024-03-08T10:22:03;95665.41;;;12.55;59.56
10652;BME280;5374;42.742;23.266;2024-03-08T10:24:52;95666.47;;;12.54;59.28
10652;BME280;5374;42.742;23.266;2024-03-08T10:27:39;95651.19;;;12.39;61.27
10652;BME280;5374;42.742;23.266;2024-03-08T10:30:28;95662.34;;;12.36;59.05
10652;BME280;5374;42.742;23.266;2024-03-08T10:33:15;95646.97;;;12.11;59.65
10652;BME280;5374;42.742;23.266;2024-03-08T10:36:03;95653.50;;;11.72;63.39
10652;BME280;5374;42.742;23.266;2024-03-08T10:38:51;95656.28;;;11.82;65.16
10652;BME280;5374;42.742;23.266;2024-03-08T10:41:39;95636.31;;;11.79;62.96
10652;BME280;5374;42.742;23.266;2024-03-08T10:44:47;95652.69;;;11.98;63.84
10652;BME280;5374;42.742;23.266;2024-03-08T10:47:41;95649.47;;;11.91;65.35
10652;BME280;5374;42.742;23.266;2024-03-08T10:50:29;95646.34;;;11.72;63.46
10652;BME280;5374;42.742;23.266;2024-03-08T10:53:17;95644.22;;;12.01;66.01
10652;BME280;5374;42.742;23.266;2024-03-08T10:56:07;95622.56;;;12.24;62.77
10652;BME280;5374;42.742;23.266;2024-03-08T10:58:55;95639.91;;;12.69;60.13
10652;BME280;5374;42.742;23.266;2024-03-08T11:01:43;95635.47;;;12.80;57.87
10652;BME280;5374;42.742;23.266;2024-03-08T11:04:32;95623.06;;;13.06;55.59
10652;BME280;5374;42.742;23.266;2024-03-08T11:07:20;95625.28;;;13.19;54.92
10652;BME280;5374;42.742;23.266;2024-03-08T11:10:18;95621.13;;;12.96;53.87
10652;BME280;5374;42.742;23.266;2024-03-08T11:13:37;95612.03;;;12.82;55.40
10652;BME280;5374;42.742;23.266;2024-03-08T11:16:39;95619.69;;;12.73;57.38
10652;BME280;5374;42.742;23.266;2024-03-08T11:19:31;95624.41;;;12.56;57.62
10652;BME280;5374;42.742;23.266;2024-03-08T11:22:23;95608.72;;;12.22;57.29
10652;BME280;5374;42.742;23.266;2024-03-08T11:25:35;95605.94;;;12.07;58.40
10652;BME280;5374;42.742;23.266;2024-03-08T11:28:27;95606.00;;;12.12;58.75
10652;BME280;5374;42.742;23.266;2024-03-08T11:31:24;95609.00;;;12.26;57.74
10652;BME280;5374;42.742;23.266;2024-03-08T11:34:15;95597.63;;;12.36;57.47
10652;BME280;5374;42.742;23.266;2024-03-08T11:37:11;95591.91;;;12.59;57.75
10652;BME280;5374;42.742;23.266;2024-03-08T11:40:00;95598.38;;;12.73;56.42
10652;BME280;5374;42.742;23.266;2024-03-08T11:42:50;95583.97;;;12.64;57.41
10652;BME280;5374;42.742;23.266;2024-03-08T11:45:38;95602.78;;;12.99;59.13
10652;BME280;5374;42.742;23.266;2024-03-08T11:48:26;95586.75;;;12.94;57.64
10652;BME280;5374;42.742;23.266;2024-03-08T11:51:14;95603.78;;;12.83;57.29
10652;BME280;5374;42.742;23.266;2024-03-08T11:54:06;95599.50;;;12.82;56.67
10652;BME280;5374;42.742;23.266;2024-03-08T11:56:53;95583.53;;;12.92;56.74
10652;BME280;5374;42.742;23.266;2024-03-08T11:59:49;95585.13;;;12.93;56.27
10652;BME280;5374;42.742;23.266;2024-03-08T12:02:36;95585.97;;;12.99;56.35
10652;BME280;5374;42.742;23.266;2024-03-08T12:05:26;95546.06;;;12.52;56.46
10652;BME280;5374;42.742;23.266;2024-03-08T12:08:16;95577.03;;;12.68;59.73
10652;BME280;5374;42.742;23.266;2024-03-08T12:11:05;95570.22;;;12.97;59.25
10652;BME280;5374;42.742;23.266;2024-03-08T12:13:52;95576.50;;;12.71;57.54
10652;BME280;5374;42.742;23.266;2024-03-08T12:16:39;95550.09;;;12.12;59.04
10652;BME280;5374;42.742;23.266;2024-03-08T12:19:27;95578.72;;;12.00;59.78
10652;BME280;5374;42.742;23.266;2024-03-08T12:22:15;95590.75;;;11.76;61.18
10652;BME280;5374;42.742;23.266;2024-03-08T12:25:06;95587.63;;;11.52;63.30
10652;BME280;5374;42.742;23.266;2024-03-08T12:28:07;95590.00;;;11.53;63.80
10652;BME280;5374;42.742;23.266;2024-03-08T12:30:56;95582.31;;;11.52;62.20
10652;BME280;5374;42.742;23.266;2024-03-08T12:33:49;95576.25;;;11.61;65.38
10652;BME280;5374;42.742;23.266;2024-03-08T12:36:37;95572.13;;;11.76;61.86
10652;BME280;5374;42.742;23.266;2024-03-08T12:39:24;95565.63;;;11.61;62.25
10652;BME280;5374;42.742;23.266;2024-03-08T12:42:12;95583.28;;;11.73;62.56
10652;BME280;5374;42.742;23.266;2024-03-08T12:45:01;95555.19;;;11.55;61.39
10652;BME280;5374;42.742;23.266;2024-03-08T12:47:52;95561.84;;;11.57;61.41
10652;BME280;5374;42.742;23.266;2024-03-08T12:50:39;95567.09;;;11.47;62.73
10652;BME280;5374;42.742;23.266;2024-03-08T12:53:28;95549.53;;;11.46;61.55
10652;BME280;5374;42.742;23.266;2024-03-08T12:56:28;95564.81;;;11.61;63.20
10652;BME280;5374;42.742;23.266;2024-03-08T12:59:16;95566.00;;;11.75;63.31
10652;BME280;5374;42.742;23.266;2024-03-08T13:02:05;95558.75;;;11.65;61.38
10652;BME280;5374;42.742;23.266;2024-03-08T13:04:56;95558.44;;;11.62;61.87
10652;BME280;5374;42.742;23.266;2024-03-08T13:07:44;95562.34;;;11.49;61.30
10652;BME280;5374;42.742;23.266;2024-03-08T13:10:32;95557.69;;;11.13;63.61
10652;BME280;5374;42.742;23.266;2024-03-08T13:13:19;95562.47;;;10.67;64.03
10652;BME280;5374;42.742;23.266;2024-03-08T13:16:06;95540.88;;;10.37;66.59
10652;BME280;5374;42.742;23.266;2024-03-08T13:18:55;95563.03;;;10.69;63.96
10652;BME280;5374;42.742;23.266;2024-03-08T13:21:43;95555.81;;;10.86;64.49
10652;BME280;5374;42.742;23.266;2024-03-08T13:24:35;95558.59;;;10.96;64.18
10652;BME280;5374;42.742;23.266;2024-03-08T13:27:22;95540.91;;;10.85;63.49
10652;BME280;5374;42.742;23.266;2024-03-08T13:30:12;95555.81;;;10.86;63.51
10652;BME280;5374;42.742;23.266;2024-03-08T13:33:01;95552.16;;;10.92;63.91
10652;BME280;5374;42.742;23.266;2024-03-08T13:35:51;95556.75;;;10.97;64.34
10652;BME280;5374;42.742;23.266;2024-03-08T13:38:39;95546.50;;;10.84;64.55
10652;BME280;5374;42.742;23.266;2024-03-08T13:41:29;95546.75;;;10.82;63.75
10652;BME280;5374;42.742;23.266;2024-03-08T13:44:16;95532.28;;;10.73;65.17
10652;BME280;5374;42.742;23.266;2024-03-08T13:47:04;95543.34;;;10.65;65.09
10652;BME280;5374;42.742;23.266;2024-03-08T13:49:53;95540.25;;;10.51;64.85
10652;BME280;5374;42.742;23.266;2024-03-08T13:52:41;95546.19;;;10.37;66.56
10652;BME280;5374;42.742;23.266;2024-03-08T13:55:29;95530.84;;;10.05;66.73
10652;BME280;5374;42.742;23.266;2024-03-08T13:58:17;95541.72;;;9.87;68.42
10652;BME280;5374;42.742;23.266;2024-03-08T14:01:05;95542.69;;;9.81;67.78
10652;BME280;5374;42.742;23.266;2024-03-08T14:03:57;95542.94;;;9.63;69.47
10652;BME280;5374;42.742;23.266;2024-03-08T14:06:45;95553.69;;;9.73;69.62
10652;BME280;5374;42.742;23.266;2024-03-08T14:09:33;95551.53;;;9.70;69.97
10652;BME280;5374;42.742;23.266;2024-03-08T14:12:23;95533.22;;;9.68;70.26
10652;BME280;5374;42.742;23.266;2024-03-08T14:15:12;95543.59;;;9.70;69.34
10652;BME280;5374;42.742;23.266;2024-03-08T14:17:59;95552.00;;;9.67;69.64
10652;BME280;5374;42.742;23.266;2024-03-08T14:20:47;95524.59;;;9.44;69.98
10652;BME280;5374;42.742;23.266;2024-03-08T14:23:34;95565.06;;;9.40;68.68
10652;BME280;5374;42.742;23.266;2024-03-08T14:26:23;95555.94;;;9.47;69.88
10652;BME280;5374;42.742;23.266;2024-03-08T14:29:12;95540.66;;;9.38;69.72
10652;BME280;5374;42.742;23.266;2024-03-08T14:31:59;95552.63;;;9.57;70.32
10652;BME280;5374;42.742;23.266;2024-03-08T14:34:46;95558.19;;;9.55;70.80
10652;BME280;5374;42.742;23.266;2024-03-08T14:37:34;95550.22;;;9.39;69.79
10652;BME280;5374;42.742;23.266;2024-03-08T14:40:21;95558.81;;;9.46;68.30
10652;BME280;5374;42.742;23.266;2024-03-08T14:43:11;95547.81;;;9.37;69.62
10652;BME280;5374;42.742;23.266;2024-03-08T14:45:59;95561.25;;;9.47;71.44
10652;BME280;5374;42.742;23.266;2024-03-08T14:48:46;95558.81;;;9.46;71.29
10652;BME280;5374;42.742;23.266;2024-03-08T14:51:33;95549.66;;;9.37;70.84
10652;BME280;5374;42.742;23.266;2024-03-08T14:54:21;95555.84;;;9.42;71.89